createdAt,value
2018-01-01T00:00:25.391Z,66.37
2018-01-01T00:02:59.595Z,65.84
2018-01-01T00:05:31.328Z,65.46
2018-01-01T00:08:05.798Z,64.88
2018-01-01T00:10:41.462Z,64.74
2018-01-01T00:13:12.885Z,64.33
2018-01-01T00:15:48.069Z,64.10
2018-01-01T00:18:30.782Z,65.11
2018-01-01T00:21:07.663Z,65.86
2018-01-01T00:23:38.739Z,66.05
2018-01-01T00:26:25.352Z,66.70
2018-01-01T00:29:07.590Z,66.01
2018-01-01T00:31:39.542Z,66.13
2018-01-01T00:34:11.759Z,66.88
2018-01-01T00:36:42.601Z,68.08
2018-01-01T00:39:20.862Z,67.08
2018-01-01T00:41:53.637Z,68.44
2018-01-01T00:44:26.516Z,67.92
2018-01-01T00:46:58.035Z,67.87
2018-01-01T00:49:33.131Z,67.43
2018-01-01T00:52:10.409Z,70.59
2018-01-01T00:54:53.772Z,71.53
2018-01-01T00:57:28.314Z,70.94
2018-01-01T01:00:06.785Z,70.84
2018-01-01T01:02:42.053Z,70.42
2018-01-01T01:05:19.099Z,69.72
2018-01-01T01:07:57.310Z,70.03
2018-01-01T01:10:45.541Z,69.40
2018-01-01T01:13:22.651Z,68.84
2018-01-01T01:15:53.384Z,68.59
2018-01-01T01:18:33.529Z,68.49
2018-01-01T01:24:10.554Z,70.69
2018-01-01T01:26:41.722Z,70.39
2018-01-01T01:29:13.665Z,69.44
2018-01-01T01:35:17.544Z,70.22
2018-01-01T01:37:55.048Z,69.49
2018-01-01T01:40:28.954Z,69.66
2018-01-01T01:43:02.639Z,69.48
2018-01-01T01:45:36.923Z,69.13
2018-01-01T01:48:12.988Z,68.25
2018-01-01T01:50:52.718Z,67.37
2018-01-01T01:53:30.916Z,66.67
2018-01-01T01:56:18.706Z,66.37
2018-01-01T02:01:40.605Z,66.67
2018-01-01T02:04:16.338Z,66.89
2018-01-01T02:06:50.002Z,67.80
2018-01-01T02:10:02.537Z,67.76
2018-01-01T02:12:38.630Z,67.48
2018-01-01T02:15:10.290Z,67.68
2018-01-01T02:17:40.919Z,67.70
2018-01-01T02:20:20.646Z,67.02
2018-01-01T02:22:56.050Z,66.19
2018-01-01T02:25:27.057Z,65.29
2018-01-01T02:28:00.136Z,64.35
2018-01-01T02:30:31.635Z,64.30
2018-01-01T02:33:05.617Z,64.70
2018-01-01T02:39:34.866Z,64.33
2018-01-01T02:42:28.866Z,64.35
2018-01-01T02:45:01.608Z,64.82
2018-01-01T02:47:33.539Z,65.34
2018-01-01T02:50:20.533Z,65.25
2018-01-01T02:52:57.593Z,64.69
2018-01-01T02:55:32.051Z,64.35
2018-01-01T03:01:05.553Z,63.76
2018-01-01T03:03:44.487Z,63.93
2018-01-01T03:06:17.274Z,65.45
2018-01-01T03:08:58.762Z,65.53
2018-01-01T03:11:46.022Z,66.51
2018-01-01T03:14:20.683Z,65.65
2018-01-01T03:16:52.753Z,64.79
2018-01-01T03:19:26.484Z,63.93
2018-01-01T03:21:59.604Z,63.91
2018-01-01T03:24:32.868Z,64.49
2018-01-01T03:27:07.624Z,64.49
2018-01-01T03:29:42.402Z,64.53
2018-01-01T03:32:17.549Z,64.96
2018-01-01T03:34:48.591Z,64.64
2018-01-01T03:37:28.608Z,64.61
2018-01-01T03:40:09.002Z,66.05
2018-01-01T03:42:46.483Z,66.29
2018-01-01T03:47:58.857Z,65.88
2018-01-01T03:50:34.972Z,64.65
2018-01-01T03:53:08.371Z,63.54
2018-01-01T03:55:39.680Z,63.41
2018-01-01T03:58:18.195Z,64.37
2018-01-01T04:00:51.537Z,64.18
2018-01-01T04:03:35.821Z,63.82
2018-01-01T04:06:07.461Z,63.00
2018-01-01T04:08:37.838Z,62.29
2018-01-01T04:11:09.882Z,62.28
2018-01-01T04:13:39.939Z,62.19
2018-01-01T04:16:11.050Z,61.11
2018-01-01T04:18:41.214Z,61.13
2018-01-01T04:21:14.494Z,63.94
2018-01-01T04:23:45.364Z,65.10
2018-01-01T04:26:17.551Z,64.80
2018-01-01T04:28:51.466Z,65.01
2018-01-01T04:31:21.968Z,64.71
2018-01-01T04:33:54.729Z,64.02
2018-01-01T04:36:26.081Z,64.04
2018-01-01T04:38:56.745Z,63.42
2018-01-01T04:41:29.146Z,63.63
2018-01-01T04:44:00.830Z,63.80
2018-01-01T04:46:32.132Z,63.59
2018-01-01T04:49:03.316Z,63.94
2018-01-01T04:51:34.317Z,63.68
2018-01-01T04:54:09.064Z,63.08
2018-01-01T04:56:41.912Z,63.04
2018-01-01T04:59:12.232Z,62.55
2018-01-01T05:01:43.574Z,64.04
2018-01-01T05:04:14.333Z,64.96
2018-01-01T05:06:46.709Z,64.68
2018-01-01T05:09:17.420Z,64.41
2018-01-01T05:11:47.683Z,64.54
2018-01-01T05:14:18.199Z,64.58
2018-01-01T05:16:48.565Z,64.84
2018-01-01T05:19:18.059Z,64.72
2018-01-01T05:21:50.275Z,63.67
2018-01-01T05:24:20.374Z,63.94
2018-01-01T05:26:51.997Z,64.73
2018-01-01T05:29:22.631Z,64.62
2018-01-01T05:31:53.232Z,64.18
2018-01-01T05:34:24.268Z,63.68
2018-01-01T05:36:55.312Z,63.16
2018-01-01T05:39:26.272Z,62.70
2018-01-01T05:41:56.923Z,63.32
2018-01-01T05:44:29.205Z,63.49
2018-01-01T05:46:59.824Z,62.81
2018-01-01T05:49:29.315Z,61.95
2018-01-01T05:52:00.724Z,61.63
2018-01-01T05:54:31.366Z,62.46
2018-01-01T05:57:03.243Z,62.34
2018-01-01T05:59:34.436Z,62.67
2018-01-01T06:02:05.501Z,63.36
2018-01-01T06:04:38.509Z,63.18
2018-01-01T06:07:08.836Z,63.04
2018-01-01T06:09:41.442Z,63.41
2018-01-01T06:12:12.847Z,63.73
2018-01-01T06:14:43.552Z,63.82
2018-01-01T06:17:13.323Z,64.04
2018-01-01T06:19:43.300Z,64.42
2018-01-01T06:22:15.257Z,65.00
2018-01-01T06:24:46.995Z,64.27
2018-01-01T06:27:23.117Z,64.39
2018-01-01T06:29:55.947Z,64.19
2018-01-01T06:32:28.131Z,63.94
2018-01-01T06:35:00.569Z,63.91
2018-01-01T06:38:19.111Z,64.67
2018-01-01T06:40:50.531Z,66.09
2018-01-01T06:43:25.928Z,65.23
2018-01-01T06:46:08.470Z,64.96
2018-01-01T06:48:39.157Z,64.64
2018-01-01T06:51:10.002Z,64.73
2018-01-01T06:53:41.685Z,65.28
2018-01-01T06:56:14.613Z,65.86
2018-01-01T06:58:52.312Z,66.37
2018-01-01T07:01:27.253Z,66.71
2018-01-01T07:03:58.149Z,65.27
2018-01-01T07:06:31.760Z,63.81
2018-01-01T07:09:08.203Z,63.61
2018-01-01T07:11:43.314Z,63.28
2018-01-01T07:14:13.504Z,64.29
2018-01-01T07:16:43.481Z,64.96
2018-01-01T07:19:15.116Z,65.36
2018-01-01T07:21:47.441Z,66.34
2018-01-01T07:24:20.188Z,66.30
2018-01-01T07:26:52.785Z,65.34
2018-01-01T07:29:30.635Z,65.11
2018-01-01T07:32:11.398Z,64.60
2018-01-01T07:34:42.551Z,63.15
2018-01-01T07:37:15.019Z,62.38
2018-01-01T07:39:45.684Z,62.80
2018-01-01T07:42:37.519Z,63.57
2018-01-01T07:45:09.371Z,65.37
2018-01-01T07:47:51.300Z,65.23
2018-01-01T07:50:27.239Z,63.83
2018-01-01T07:52:59.084Z,62.52
2018-01-01T07:58:31.572Z,61.34
2018-01-01T08:01:02.798Z,61.10
2018-01-01T08:03:35.671Z,62.64
2018-01-01T08:06:06.211Z,61.88
2018-01-01T08:08:40.957Z,61.63
2018-01-01T08:11:22.766Z,62.05
2018-01-01T08:13:57.224Z,61.84
2018-01-01T08:16:31.957Z,60.81
2018-01-01T08:19:03.210Z,59.63
2018-01-01T08:24:49.170Z,59.80
2018-01-01T08:27:41.538Z,59.96
2018-01-01T08:30:15.169Z,60.21
2018-01-01T08:32:48.565Z,60.65
2018-01-01T08:35:19.668Z,61.31
2018-01-01T08:37:52.650Z,61.46
2018-01-01T08:40:27.263Z,60.62
2018-01-01T08:45:36.747Z,58.83
2018-01-01T08:48:07.360Z,59.26
2018-01-01T08:50:40.169Z,59.78
2018-01-01T08:53:18.275Z,58.61
2018-01-01T08:55:50.017Z,58.48
2018-01-01T08:58:38.201Z,57.33
2018-01-01T09:02:01.086Z,57.99
2018-01-01T09:04:36.418Z,58.99
2018-01-01T09:07:16.746Z,59.49
2018-01-01T09:09:49.303Z,59.82
2018-01-01T09:12:21.094Z,59.45
2018-01-01T09:14:53.258Z,59.31
2018-01-01T09:17:23.397Z,59.55
2018-01-01T09:19:53.449Z,59.30
2018-01-01T09:22:28.155Z,58.73
2018-01-01T09:25:03.296Z,58.91
2018-01-01T09:27:42.627Z,59.54
2018-01-01T09:30:18.231Z,60.93
2018-01-01T09:32:52.637Z,61.22
2018-01-01T09:35:26.870Z,61.17
2018-01-01T09:37:58.662Z,60.77
2018-01-01T09:40:31.496Z,61.16
2018-01-01T09:43:03.345Z,60.78
2018-01-01T09:45:41.408Z,61.81
2018-01-01T09:48:14.837Z,61.82
2018-01-01T09:50:49.926Z,60.84
2018-01-01T09:53:21.333Z,60.12
2018-01-01T09:55:53.341Z,60.15
2018-01-01T09:58:24.728Z,59.64
2018-01-01T10:00:57.229Z,58.99
2018-01-01T10:03:28.035Z,59.37
2018-01-01T10:05:59.890Z,58.74
2018-01-01T10:08:31.157Z,58.66
2018-01-01T10:11:03.850Z,60.25
2018-01-01T10:13:50.052Z,59.70
2018-01-01T10:16:20.934Z,59.06
2018-01-01T10:18:52.920Z,58.29
2018-01-01T10:21:27.364Z,58.55
2018-01-01T10:24:05.180Z,59.17
2018-01-01T10:26:48.145Z,59.53
2018-01-01T10:29:20.765Z,59.86
2018-01-01T10:31:56.293Z,60.53
2018-01-01T10:34:27.841Z,60.37
2018-01-01T10:37:03.477Z,59.97
2018-01-01T10:40:16.311Z,60.23
2018-01-01T10:43:07.674Z,60.37
2018-01-01T10:45:48.566Z,59.57
2018-01-01T10:48:28.165Z,59.32
2018-01-01T10:51:02.724Z,58.57
2018-01-01T10:53:37.859Z,58.01
2018-01-01T10:56:07.934Z,57.33
2018-01-01T10:58:45.341Z,56.03
2018-01-01T11:01:21.104Z,53.72
2018-01-01T11:03:52.047Z,53.99
2018-01-01T11:06:22.233Z,54.31
2018-01-01T11:08:56.685Z,52.90
2018-01-01T11:11:28.049Z,53.39
2018-01-01T11:13:58.046Z,53.58
2018-01-01T11:16:35.329Z,53.07
2018-01-01T11:19:06.968Z,52.98
2018-01-01T11:21:38.100Z,52.54
2018-01-01T11:24:14.850Z,52.56
2018-01-01T11:26:46.245Z,52.36
2018-01-01T11:29:20.142Z,51.67
2018-01-01T11:34:28.089Z,51.22
2018-01-01T11:37:03.409Z,50.95
2018-01-01T11:39:33.217Z,50.10
2018-01-01T11:42:06.810Z,48.98
2018-01-01T11:44:37.056Z,48.93
2018-01-01T11:47:10.115Z,49.68
2018-01-01T11:49:41.201Z,48.82
2018-01-01T11:52:14.394Z,48.78
2018-01-01T11:55:27.224Z,48.33
2018-01-01T11:57:57.609Z,49.04
2018-01-01T12:00:30.746Z,48.13
2018-01-01T12:03:02.060Z,48.53
2018-01-01T12:05:36.974Z,48.48
2018-01-01T12:08:08.952Z,48.33
2018-01-01T12:10:43.146Z,47.32
2018-01-01T12:13:13.571Z,47.66
2018-01-01T12:15:47.280Z,47.80
2018-01-01T12:18:20.670Z,46.70
2018-01-01T12:20:52.717Z,45.55
2018-01-01T12:23:27.122Z,46.04
2018-01-01T12:25:57.625Z,47.09
2018-01-01T12:28:29.243Z,46.79
2018-01-01T12:31:03.530Z,46.44
2018-01-01T12:33:34.222Z,46.71
2018-01-01T12:36:13.205Z,46.63
2018-01-01T12:38:45.935Z,45.31
2018-01-01T12:41:27.059Z,46.06
2018-01-01T12:43:58.037Z,46.54
2018-01-01T12:46:32.838Z,45.74
2018-01-01T12:49:05.397Z,46.31
2018-01-01T12:51:36.856Z,46.05
2018-01-01T12:54:08.004Z,46.00
2018-01-01T12:56:40.237Z,44.95
2018-01-01T12:59:10.639Z,44.86
2018-01-01T13:01:45.437Z,45.61
2018-01-01T13:04:17.069Z,45.98
2018-01-01T13:06:55.520Z,46.44
2018-01-01T13:09:29.297Z,46.58
2018-01-01T13:11:59.354Z,45.22
2018-01-01T13:14:31.326Z,44.59
2018-01-01T13:17:11.816Z,45.06
2018-01-01T13:19:58.117Z,46.00
2018-01-01T13:22:28.157Z,46.11
2018-01-01T13:25:00.816Z,46.21
2018-01-01T13:27:39.096Z,46.05
2018-01-01T13:30:10.196Z,45.75
2018-01-01T13:32:41.683Z,46.02
2018-01-01T13:38:51.869Z,46.68
2018-01-01T13:41:26.509Z,46.01
2018-01-01T13:43:57.908Z,45.74
2018-01-01T13:46:29.860Z,45.66
2018-01-01T13:49:00.211Z,45.33
2018-01-01T13:51:32.156Z,45.65
2018-01-01T13:54:05.364Z,46.13
2018-01-01T13:56:35.902Z,46.28
2018-01-01T13:59:07.955Z,46.75
2018-01-01T14:01:44.089Z,47.50
2018-01-01T14:04:16.802Z,47.82
2018-01-01T14:07:01.255Z,47.68
2018-01-01T14:09:32.072Z,47.96
2018-01-01T14:12:03.203Z,47.73
2018-01-01T14:14:33.150Z,48.13
2018-01-01T14:17:03.482Z,48.74
2018-01-01T14:20:10.623Z,49.20
2018-01-01T14:23:31.497Z,49.43
